createdAt,value
2018-08-23T00:02:23.711Z,23.60
2018-08-23T00:04:54.732Z,23.30
2018-08-23T00:07:23.456Z,23.50
2018-08-23T00:09:52.840Z,23.50
2018-08-23T00:12:25.476Z,23.50
2018-08-23T00:14:54.245Z,23.70
2018-08-23T00:17:23.346Z,23.50
2018-08-23T00:19:52.522Z,23.60
2018-08-23T00:22:27.560Z,23.40
2018-08-23T00:25:00.610Z,23.60
2018-08-23T00:27:38.786Z,23.70
2018-08-23T00:30:11.396Z,23.40
2018-08-23T00:32:40.524Z,23.50
2018-08-23T00:35:15.009Z,23.40
2018-08-23T00:37:48.395Z,23.30
2018-08-23T00:40:19.090Z,23.30
2018-08-23T00:42:54.309Z,23.20
2018-08-23T00:45:22.561Z,23.30
2018-08-23T00:47:50.836Z,23.20
2018-08-23T00:50:59.076Z,22.70
2018-08-23T00:53:28.582Z,22.40
2018-08-23T00:56:13.087Z,22.30
2018-08-23T00:58:44.566Z,22.30
2018-08-23T01:01:13.598Z,22.30
2018-08-23T01:03:42.227Z,22.20
2018-08-23T01:06:10.498Z,22.10
2018-08-23T01:08:38.734Z,22.00
2018-08-23T01:11:08.138Z,22.10
2018-08-23T01:13:36.424Z,22.10
2018-08-23T01:16:04.683Z,22.00
2018-08-23T01:18:32.931Z,21.80
2018-08-23T01:21:06.302Z,21.70
2018-08-23T01:23:34.826Z,21.70
2018-08-23T01:26:04.154Z,21.60
2018-08-23T01:28:32.685Z,21.70
2018-08-23T01:31:17.219Z,21.50
2018-08-23T01:33:45.852Z,21.50
2018-08-23T01:36:16.970Z,21.70
2018-08-23T01:38:45.265Z,21.80
2018-08-23T01:41:13.524Z,21.60
2018-08-23T01:43:42.333Z,21.60
2018-08-23T01:46:10.610Z,21.50
2018-08-23T01:48:40.010Z,21.50
2018-08-23T01:51:08.402Z,21.40
2018-08-23T01:53:38.787Z,21.50
2018-08-23T01:56:07.718Z,21.30
2018-08-23T01:58:36.006Z,21.10
2018-08-23T02:01:13.652Z,21.10
2018-08-23T02:03:42.234Z,21.30
2018-08-23T02:06:10.535Z,21.00
2018-08-23T02:08:38.827Z,21.40
2018-08-23T02:11:07.338Z,21.30
2018-08-23T02:13:35.637Z,21.20
2018-08-23T02:16:04.357Z,21.10
2018-08-23T02:18:33.458Z,21.10
2018-08-23T02:21:07.898Z,21.10
2018-08-23T02:23:45.592Z,21.10
2018-08-23T02:26:14.199Z,21.00
2018-08-23T02:28:44.866Z,20.90
2018-08-23T02:31:13.106Z,20.90
2018-08-23T02:33:41.398Z,20.90
2018-08-23T02:36:16.121Z,20.80
2018-08-23T02:38:45.568Z,20.60
2018-08-23T02:41:13.829Z,20.60
2018-08-23T02:43:42.677Z,20.60
2018-08-23T02:46:10.971Z,20.50
2018-08-23T02:48:39.222Z,20.50
2018-08-23T02:51:07.495Z,20.50
2018-08-23T02:53:37.375Z,20.20
2018-08-23T02:56:10.287Z,20.80
2018-08-23T02:58:47.953Z,20.80
2018-08-23T03:01:16.262Z,20.70
2018-08-23T03:04:00.025Z,20.50
2018-08-23T03:07:02.727Z,20.40
2018-08-23T03:09:36.255Z,20.30
2018-08-23T03:12:07.722Z,20.00
2018-08-23T03:14:36.153Z,20.00
2018-08-23T03:17:22.292Z,19.90
2018-08-23T03:20:05.101Z,20.00
2018-08-23T03:22:34.195Z,19.90
2018-08-23T03:25:04.222Z,19.80
2018-08-23T03:27:32.713Z,19.70
2018-08-23T03:30:01.919Z,19.90
2018-08-23T03:32:30.614Z,19.90
2018-08-23T03:34:59.279Z,19.90
2018-08-23T03:37:27.570Z,20.00
2018-08-23T03:39:56.335Z,19.90
2018-08-23T03:42:25.022Z,19.90
2018-08-23T03:44:54.422Z,19.90
2018-08-23T03:47:23.026Z,19.80
2018-08-23T03:49:51.451Z,19.80
2018-08-23T03:52:27.948Z,19.70
2018-08-23T03:54:58.411Z,19.60
2018-08-23T03:57:32.136Z,19.60
2018-08-23T04:00:00.395Z,19.60
2018-08-23T04:02:28.618Z,19.70
2018-08-23T04:05:04.496Z,19.60
2018-08-23T04:07:32.770Z,19.60
2018-08-23T04:10:01.043Z,19.60
2018-08-23T04:12:29.362Z,19.60
2018-08-23T04:15:13.046Z,19.50
2018-08-23T04:17:41.267Z,19.60
2018-08-23T04:20:09.574Z,19.60
2018-08-23T04:22:37.890Z,19.60
2018-08-23T04:25:06.381Z,19.40
2018-08-23T04:27:34.979Z,19.50
2018-08-23T04:30:03.306Z,19.40
2018-08-23T04:32:36.949Z,19.40
2018-08-23T04:35:09.733Z,19.40
2018-08-23T04:37:38.143Z,19.40
2018-08-23T04:40:07.308Z,19.40
2018-08-23T04:42:36.120Z,19.30
2018-08-23T04:45:08.762Z,19.40
2018-08-23T04:47:43.906Z,19.40
2018-08-23T04:50:12.507Z,19.40
2018-08-23T04:52:40.847Z,19.40
2018-08-23T04:55:09.160Z,19.40
2018-08-23T04:57:37.494Z,19.30
2018-08-23T05:00:06.215Z,19.40
2018-08-23T05:02:34.803Z,19.40
2018-08-23T05:05:03.056Z,19.30
2018-08-23T05:07:31.291Z,19.40
2018-08-23T05:09:59.539Z,19.50
2018-08-23T05:12:27.933Z,19.50
2018-08-23T05:14:56.162Z,19.50
2018-08-23T05:17:24.641Z,19.60
2018-08-23T05:19:53.022Z,19.60
2018-08-23T05:22:21.303Z,19.60
2018-08-23T05:24:49.539Z,19.70
2018-08-23T05:27:17.803Z,19.70
2018-08-23T05:29:46.038Z,19.70
2018-08-23T05:32:14.326Z,19.60
2018-08-23T05:34:42.581Z,19.70
2018-08-23T05:37:10.811Z,19.70
2018-08-23T05:39:48.659Z,19.70
2018-08-23T05:42:23.774Z,19.70
2018-08-23T05:44:52.019Z,19.70
2018-08-23T05:47:20.274Z,19.70
2018-08-23T05:49:48.530Z,19.70
2018-08-23T05:52:17.467Z,19.80
2018-08-23T05:54:45.779Z,19.80
2018-08-23T05:57:14.342Z,19.80
2018-08-23T05:59:42.682Z,19.90
2018-08-23T06:02:11.223Z,20.00
2018-08-23T06:04:41.637Z,20.10
2018-08-23T06:07:09.967Z,20.10
2018-08-23T06:09:40.723Z,20.20
2018-08-23T06:12:09.222Z,20.10
2018-08-23T06:14:37.448Z,20.20
2018-08-23T06:17:06.255Z,20.30
2018-08-23T06:19:34.526Z,20.40
2018-08-23T06:22:02.753Z,20.50
2018-08-23T06:24:31.490Z,20.70
2018-08-23T06:27:00.364Z,20.70
2018-08-23T06:29:31.223Z,20.70
2018-08-23T06:32:09.903Z,20.80
2018-08-23T06:34:41.648Z,20.80
2018-08-23T06:37:09.907Z,20.80
2018-08-23T06:39:40.193Z,21.00
2018-08-23T06:42:08.571Z,21.00
2018-08-23T06:44:42.779Z,21.10
2018-08-23T06:47:13.589Z,21.20
2018-08-23T06:49:42.942Z,21.20
2018-08-23T06:52:12.923Z,21.40
2018-08-23T06:54:41.695Z,21.50
2018-08-23T06:57:10.411Z,21.50
2018-08-23T06:59:39.018Z,21.70
2018-08-23T07:02:07.376Z,21.80
2018-08-23T07:04:35.638Z,21.80
2018-08-23T07:07:03.939Z,22.10
2018-08-23T07:09:33.065Z,22.00
2018-08-23T07:12:06.607Z,21.90
2018-08-23T07:14:35.251Z,22.10
2018-08-23T07:17:15.130Z,22.10
2018-08-23T07:19:43.612Z,22.20
2018-08-23T07:22:12.251Z,22.30
2018-08-23T07:24:43.914Z,22.30
2018-08-23T07:27:13.302Z,22.10
2018-08-23T07:29:44.692Z,22.30
2018-08-23T07:32:19.202Z,22.60
2018-08-23T07:35:01.941Z,22.70
2018-08-23T07:37:31.110Z,22.70
2018-08-23T07:40:04.902Z,22.70
2018-08-23T07:42:33.912Z,22.90
2018-08-23T07:45:02.680Z,23.10
2018-08-23T07:47:31.586Z,23.30
2018-08-23T07:50:00.996Z,23.50
2018-08-23T07:52:30.583Z,23.70
2018-08-23T07:54:58.902Z,23.70
2018-08-23T07:57:30.866Z,23.70
2018-08-23T08:00:00.455Z,24.00
2018-08-23T08:02:29.234Z,24.20
2018-08-23T08:04:58.262Z,24.10
2018-08-23T08:07:27.434Z,24.00
2018-08-23T08:09:56.430Z,24.10
2018-08-23T08:12:38.456Z,23.90
2018-08-23T08:15:08.606Z,24.00
2018-08-23T08:17:36.756Z,24.00
2018-08-23T08:20:06.264Z,24.10
2018-08-23T08:22:34.546Z,24.30
2018-08-23T08:25:08.971Z,24.70
2018-08-23T08:27:37.805Z,24.80
2018-08-23T08:30:08.362Z,24.70
2018-08-23T08:32:36.621Z,24.80
2018-08-23T08:35:04.923Z,25.00
2018-08-23T08:37:33.168Z,25.20
2018-08-23T08:40:01.453Z,25.20
2018-08-23T08:42:32.188Z,25.30
2018-08-23T08:45:17.014Z,25.30
2018-08-23T08:47:46.265Z,25.50
2018-08-23T08:50:14.636Z,25.50
2018-08-23T08:52:43.002Z,25.40
2018-08-23T08:55:13.643Z,25.60
2018-08-23T08:57:43.328Z,25.70
2018-08-23T09:00:11.711Z,26.10
2018-08-23T09:02:39.986Z,26.30
2018-08-23T09:05:09.131Z,26.50
2018-08-23T09:07:38.446Z,26.30
2018-08-23T09:10:06.846Z,26.30
2018-08-23T09:12:39.306Z,26.40
2018-08-23T09:15:07.662Z,26.30
2018-08-23T09:17:42.271Z,25.90
2018-08-23T09:20:18.628Z,25.70
2018-08-23T09:22:50.527Z,25.70
2018-08-23T09:25:28.647Z,26.00
2018-08-23T09:27:58.169Z,26.20
2018-08-23T09:30:27.886Z,26.80
2018-08-23T09:32:56.420Z,26.60
2018-08-23T09:35:28.905Z,26.60
2018-08-23T09:37:58.890Z,26.40
2018-08-23T09:40:27.887Z,26.20
2018-08-23T09:42:56.653Z,26.20
2018-08-23T09:45:24.919Z,26.40
2018-08-23T09:47:53.486Z,27.00
2018-08-23T09:50:21.937Z,27.20
2018-08-23T09:52:50.695Z,27.10
2018-08-23T09:55:20.124Z,26.70
2018-08-23T09:57:48.552Z,27.00
2018-08-23T10:00:22.230Z,27.30
2018-08-23T10:02:55.856Z,27.60
2018-08-23T10:05:29.749Z,27.70
2018-08-23T10:08:03.402Z,28.10
2018-08-23T10:10:37.250Z,27.70
2018-08-23T10:13:10.947Z,27.80
2018-08-23T10:15:45.190Z,28.00
2018-08-23T10:18:18.882Z,28.20
2018-08-23T10:20:52.827Z,28.40
2018-08-23T10:23:22.718Z,28.70
2018-08-23T10:25:52.175Z,28.20
2018-08-23T10:28:23.777Z,27.90
2018-08-23T10:30:52.439Z,28.20
2018-08-23T10:33:20.915Z,27.70
2018-08-23T10:35:56.539Z,27.90
2018-08-23T10:38:26.703Z,27.90
2018-08-23T10:40:59.273Z,27.90
2018-08-23T10:43:32.969Z,28.50
2018-08-23T10:46:03.882Z,28.70
2018-08-23T10:48:32.278Z,28.60
2018-08-23T10:51:00.585Z,28.10
2018-08-23T10:53:28.900Z,28.10
2018-08-23T10:55:57.312Z,28.40
2018-08-23T10:58:25.704Z,28.30
2018-08-23T11:00:53.952Z,28.10
2018-08-23T11:03:22.230Z,28.30
2018-08-23T11:05:50.603Z,28.90
2018-08-23T11:08:19.802Z,29.60
2018-08-23T11:10:53.442Z,29.40
2018-08-23T11:13:27.022Z,29.30
2018-08-23T11:16:00.834Z,29.30
2018-08-23T11:18:34.526Z,29.10
2018-08-23T11:21:03.734Z,29.20
2018-08-23T11:23:32.301Z,28.90
2018-08-23T11:26:00.575Z,29.30
2018-08-23T11:28:28.865Z,29.30
2018-08-23T11:31:01.631Z,29.60
2018-08-23T11:33:29.912Z,29.50
2018-08-23T11:35:58.319Z,30.00
2018-08-23T11:38:26.635Z,30.20
2018-08-23T11:40:54.890Z,30.30
2018-08-23T11:43:23.294Z,30.30
2018-08-23T11:46:01.750Z,30.50
2018-08-23T11:48:30.326Z,30.50
2018-08-23T11:50:58.620Z,29.90
2018-08-23T11:53:27.037Z,29.70
2018-08-23T11:55:55.249Z,30.00
2018-08-23T11:58:23.572Z,30.40
2018-08-23T12:00:51.814Z,29.90
2018-08-23T12:03:21.035Z,29.80
2018-08-23T12:05:49.600Z,29.60
2018-08-23T12:08:18.078Z,29.90
2018-08-23T12:10:46.352Z,30.30
2018-08-23T12:13:14.729Z,29.90
2018-08-23T12:15:45.557Z,29.80
2018-08-23T12:18:17.661Z,30.20
2018-08-23T12:21:13.924Z,30.40
2018-08-23T12:23:55.644Z,30.90
2018-08-23T12:26:34.451Z,30.10
2018-08-23T12:29:14.365Z,30.70
2018-08-23T12:34:56.189Z,30.10
2018-08-23T12:40:18.236Z,30.10
2018-08-23T12:46:19.169Z,30.40
2018-08-23T12:51:41.062Z,31.60
2018-08-23T12:54:11.084Z,30.60
2018-08-23T12:56:51.044Z,30.60
2018-08-23T12:59:25.027Z,30.60
2018-08-23T13:04:50.131Z,30.00
2018-08-23T13:12:49.931Z,30.90
2018-08-23T13:15:29.356Z,30.40
2018-08-23T13:18:13.103Z,30.30
2018-08-23T13:20:43.671Z,30.30
2018-08-23T13:23:14.794Z,30.90
2018-08-23T13:25:51.696Z,30.70
2018-08-23T13:28:20.435Z,30.70
2018-08-23T13:30:52.831Z,30.70
2018-08-23T13:33:25.788Z,30.10
2018-08-23T13:35:57.039Z,30.50
2018-08-23T13:38:29.347Z,30.30
2018-08-23T13:40:58.429Z,30.40
2018-08-23T13:43:28.597Z,30.40
2018-08-23T13:46:01.226Z,30.60
2018-08-23T13:48:32.866Z,30.60
2018-08-23T13:51:05.350Z,30.30
2018-08-23T13:53:34.164Z,29.70
2018-08-23T13:56:08.915Z,29.60
2018-08-23T13:58:39.643Z,29.90
2018-08-23T14:01:15.239Z,29.80
2018-08-23T14:03:51.029Z,29.60
2018-08-23T14:06:21.213Z,30.20
2018-08-23T14:08:58.100Z,30.10
2018-08-23T14:11:27.404Z,30.20
2018-08-23T14:13:57.640Z,30.40
2018-08-23T14:16:27.304Z,30.80
2018-08-23T14:22:03.208Z,30.40
2018-08-23T14:24:36.185Z,30.60
2018-08-23T14:27:12.600Z,30.50
2018-08-23T14:29:47.630Z,30.10
2018-08-23T14:32:20.981Z,30.10
2018-08-23T14:34:51.793Z,30.80
2018-08-23T14:42:28.614Z,30.00
2018-08-23T14:50:56.869Z,31.30
2018-08-23T15:01:24.838Z,31.10
2018-08-23T15:07:20.627Z,30.50
2018-08-23T15:10:23.634Z,30.40
2018-08-23T15:16:12.204Z,31.60
2018-08-23T15:20:39.988Z,31.00
2018-08-23T16:09:19.731Z,30.60
2018-08-23T16:11:55.075Z,32.40
2018-08-23T16:14:35.889Z,31.80
2018-08-23T16:17:15.159Z,31.80
2018-08-23T17:28:26.202Z,30.80
2018-08-23T18:16:54.170Z,26.60
2018-08-23T18:19:22.511Z,25.30
2018-08-23T18:21:51.188Z,25.20
2018-08-23T18:24:19.659Z,25.20
2018-08-23T18:26:48.013Z,25.40
2018-08-23T18:29:16.327Z,25.40
2018-08-23T18:31:44.571Z,25.30
2018-08-23T18:34:12.914Z,25.20
2018-08-23T18:36:41.176Z,25.00
2018-08-23T18:39:10.920Z,24.90
2018-08-23T18:41:39.346Z,24.70
2018-08-23T18:44:07.820Z,24.60
2018-08-23T18:46:36.389Z,24.50
2018-08-23T18:49:04.800Z,24.60
2018-08-23T18:51:33.054Z,24.70
2018-08-23T18:54:01.541Z,24.90
2018-08-23T18:56:30.325Z,24.90
2018-08-23T18:58:58.803Z,24.60
2018-08-23T19:01:27.070Z,24.60
2018-08-23T19:03:55.430Z,24.60
2018-08-23T19:06:28.977Z,24.30
2018-08-23T19:09:02.317Z,24.30
2018-08-23T19:11:30.652Z,24.40
2018-08-23T19:13:59.024Z,24.50
2018-08-23T19:16:32.658Z,24.60
2018-08-23T19:19:01.012Z,24.60
2018-08-23T19:21:29.267Z,24.60
2018-08-23T19:23:57.547Z,24.60
2018-08-23T19:26:25.926Z,24.50
2018-08-23T19:28:54.241Z,24.30
2018-08-23T19:31:22.594Z,24.50
2018-08-23T19:33:50.894Z,24.30
2018-08-23T19:36:19.462Z,24.00
2018-08-23T19:38:47.746Z,24.10
2018-08-23T19:41:16.076Z,24.20
2018-08-23T19:43:44.323Z,24.20
2018-08-23T19:46:17.890Z,24.10
2018-08-23T19:48:47.766Z,24.20
2018-08-23T19:51:16.035Z,24.20
2018-08-23T19:53:44.288Z,24.30
2018-08-23T19:56:12.531Z,24.30
2018-08-23T19:58:40.916Z,23.90
2018-08-23T20:01:09.211Z,24.00
2018-08-23T20:03:38.557Z,23.90
2018-08-23T20:06:07.193Z,23.90
2018-08-23T20:08:47.502Z,23.80
2018-08-23T20:11:15.778Z,23.70
2018-08-23T20:13:44.083Z,23.60
2018-08-23T20:16:12.409Z,23.40
2018-08-23T20:18:40.736Z,23.30
2018-08-23T20:21:09.014Z,23.30
2018-08-23T20:23:37.297Z,23.30
2018-08-23T20:26:05.880Z,23.20
2018-08-23T20:28:34.234Z,23.10
2018-08-23T20:31:02.845Z,23.30
2018-08-23T20:33:31.121Z,23.20
2018-08-23T20:35:59.367Z,23.10
2018-08-23T20:38:27.650Z,23.20
2018-08-23T20:40:55.926Z,23.10
2018-08-23T20:43:24.183Z,23.30
2018-08-23T20:45:52.459Z,23.10
2018-08-23T20:48:20.881Z,23.30
2018-08-23T20:50:49.175Z,23.30
2018-08-23T20:53:17.512Z,23.20
2018-08-23T20:55:45.811Z,23.10
2018-08-23T20:58:14.137Z,23.10
2018-08-23T21:00:42.382Z,23.00
2018-08-23T21:03:10.630Z,23.10
2018-08-23T21:05:38.898Z,23.10
2018-08-23T21:08:07.202Z,23.10
2018-08-23T21:10:35.495Z,23.20
2018-08-23T21:13:03.826Z,23.10
2018-08-23T21:15:38.784Z,23.00
2018-08-23T21:18:10.000Z,22.70
2018-08-23T21:20:38.724Z,22.70
2018-08-23T21:23:08.179Z,22.70
2018-08-23T21:25:36.598Z,22.50
2018-08-23T21:28:06.337Z,22.30
2018-08-23T21:30:34.560Z,22.20
2018-08-23T21:33:02.790Z,22.10
2018-08-23T21:35:31.087Z,22.00
2018-08-23T21:37:59.415Z,22.00
2018-08-23T21:40:27.965Z,21.90
2018-08-23T21:42:56.281Z,22.00
2018-08-23T21:45:24.943Z,21.90
2018-08-23T21:47:53.202Z,21.90
2018-08-23T21:50:21.521Z,22.00
2018-08-23T21:52:49.860Z,22.20
2018-08-23T21:55:18.797Z,22.40
2018-08-23T21:57:47.048Z,22.30
2018-08-23T22:00:15.692Z,22.30
2018-08-23T22:02:43.971Z,22.60
2018-08-23T22:05:12.353Z,22.60
2018-08-23T22:07:40.601Z,22.70
2018-08-23T22:10:08.910Z,22.70
2018-08-23T22:12:39.114Z,22.80
2018-08-23T22:15:07.387Z,22.70
2018-08-23T22:17:35.880Z,22.60
2018-08-23T22:20:04.358Z,22.80
2018-08-23T22:22:32.589Z,22.80
2018-08-23T22:25:00.858Z,22.80
2018-08-23T22:27:29.110Z,22.80
2018-08-23T22:29:57.414Z,22.80
2018-08-23T22:32:25.720Z,22.70
2018-08-23T22:34:53.999Z,22.80
2018-08-23T22:37:22.237Z,22.70
2018-08-23T22:39:50.496Z,22.60
2018-08-23T22:42:18.737Z,22.80
2018-08-23T22:44:47.019Z,22.80
2018-08-23T22:47:15.319Z,22.70
2018-08-23T22:49:43.632Z,22.50
2018-08-23T22:52:11.822Z,22.40
2018-08-23T22:54:40.133Z,22.40
2018-08-23T22:57:08.385Z,22.60
2018-08-23T22:59:36.623Z,22.70
2018-08-23T23:02:04.959Z,22.50
2018-08-23T23:04:33.218Z,22.40
2018-08-23T23:07:05.714Z,22.40
2018-08-23T23:09:33.983Z,22.40
2018-08-23T23:12:02.288Z,22.50
2018-08-23T23:14:30.509Z,22.40
2018-08-23T23:16:58.808Z,22.20
2018-08-23T23:19:27.295Z,22.40
2018-08-23T23:21:55.575Z,22.40
2018-08-23T23:24:29.164Z,22.40
2018-08-23T23:26:57.427Z,22.40
2018-08-23T23:29:25.846Z,22.40
2018-08-23T23:31:54.166Z,22.30
2018-08-23T23:34:22.472Z,22.20
2018-08-23T23:36:50.844Z,22.40
2018-08-23T23:39:19.208Z,22.30
2018-08-23T23:41:47.503Z,22.30
2018-08-23T23:44:15.887Z,22.20
2018-08-23T23:46:44.175Z,22.20
2018-08-23T23:49:12.604Z,22.30
2018-08-23T23:51:41.347Z,22.40
2018-08-23T23:54:09.767Z,22.30
2018-08-23T23:56:38.038Z,22.40
2018-08-23T23:59:06.661Z,22.50
